Springfield, Canada
Current Conditions -  °F | °C
As of 7:00 PM on Thursday 20 Nov 2014 (Local Time) from CYZX Reporting Station
Overcast Overcast  
Wind Chill: 39°   Ceiling: 2900
Heat Index: 39°   Visibility: 12mi
Dew Point: 37°   Wind: 2mph
Humidity: 93%   Direction: 180°S
Pressure: 29.73"   Gusts: NA
Location:  44.63°N, 64.85°W
Report Text: CYZX 202300Z 18002KT 12SM BKN029 OVC080 04/03 A2973 RMK SC6AC2 WNDY HILL 20010KT SLP068
Loading
Personal Weather Stations






























Interactive Weather Map New forecast layout! Learn more

10-Day Weather Forecast

Advertisements
Track Severe Weather on mobile